sensor_id;sensor_type;location;lat;lon;timestamp;P1;durP1;ratioP1;P2;durP2;ratioP2
24147;SDS011;12309;51.450;-2.624;2022-09-09T00:00:38;22.92;;;8.95;;
24147;SDS011;12309;51.450;-2.624;2022-09-09T00:03:27;23.40;;;9.95;;
24147;SDS011;12309;51.450;-2.624;2022-09-09T00:06:10;21.38;;;8.82;;
24147;SDS011;12309;51.450;-2.624;2022-09-09T00:11:27;11.38;;;7.05;;
24147;SDS011;12309;51.450;-2.624;2022-09-09T00:14:01;15.43;;;7.03;;
24147;SDS011;12309;51.450;-2.624;2022-09-09T00:16:34;14.07;;;6.03;;
24147;SDS011;12309;51.450;-2.624;2022-09-09T00:19:20;14.00;;;5.60;;
24147;SDS011;12309;51.450;-2.624;2022-09-09T00:22:17;20.65;;;7.43;;
24147;SDS011;12309;51.450;-2.624;2022-09-09T00:24:52;17.42;;;6.35;;
24147;SDS011;12309;51.450;-2.624;2022-09-09T00:27:22;17.40;;;6.75;;
24147;SDS011;12309;51.450;-2.624;2022-09-09T00:29:56;17.27;;;6.47;;
24147;SDS011;12309;51.450;-2.624;2022-09-09T00:32:30;17.40;;;5.95;;
24147;SDS011;12309;51.450;-2.624;2022-09-09T00:35:02;19.98;;;4.80;;
24147;SDS011;12309;51.450;-2.624;2022-09-09T00:37:40;12.75;;;4.40;;
24147;SDS011;12309;51.450;-2.624;2022-09-09T00:40:18;11.65;;;4.00;;
24147;SDS011;12309;51.450;-2.624;2022-09-09T00:43:05;8.48;;;4.28;;
24147;SDS011;12309;51.450;-2.624;2022-09-09T00:48:18;11.43;;;3.42;;
24147;SDS011;12309;51.450;-2.624;2022-09-09T00:58:37;6.50;;;3.15;;
24147;SDS011;12309;51.450;-2.624;2022-09-09T01:01:10;12.38;;;3.10;;
24147;SDS011;12309;51.450;-2.624;2022-09-09T01:03:39;8.95;;;2.95;;
24147;SDS011;12309;51.450;-2.624;2022-09-09T01:11:29;9.77;;;2.92;;
24147;SDS011;12309;51.450;-2.624;2022-09-09T01:14:18;10.95;;;2.75;;
24147;SDS011;12309;51.450;-2.624;2022-09-09T01:17:20;10.02;;;2.88;;
24147;SDS011;12309;51.450;-2.624;2022-09-09T01:28:09;14.20;;;2.80;;
24147;SDS011;12309;51.450;-2.624;2022-09-09T01:30:41;8.88;;;2.55;;
24147;SDS011;12309;51.450;-2.624;2022-09-09T01:33:09;9.68;;;2.58;;
24147;SDS011;12309;51.450;-2.624;2022-09-09T01:35:50;5.70;;;2.33;;
24147;SDS011;12309;51.450;-2.624;2022-09-09T01:38:20;9.25;;;2.50;;
24147;SDS011;12309;51.450;-2.624;2022-09-09T01:40:47;12.35;;;2.78;;
24147;SDS011;12309;51.450;-2.624;2022-09-09T01:43:14;13.40;;;2.70;;
24147;SDS011;12309;51.450;-2.624;2022-09-09T01:45:40;8.32;;;2.65;;
24147;SDS011;12309;51.450;-2.624;2022-09-09T01:48:07;7.65;;;2.40;;
24147;SDS011;12309;51.450;-2.624;2022-09-09T01:50:33;8.52;;;3.10;;
24147;SDS011;12309;51.450;-2.624;2022-09-09T01:52:59;12.40;;;2.47;;
24147;SDS011;12309;51.450;-2.624;2022-09-09T01:55:31;11.25;;;2.78;;
24147;SDS011;12309;51.450;-2.624;2022-09-09T02:00:33;10.50;;;2.90;;
24147;SDS011;12309;51.450;-2.624;2022-09-09T02:06:01;10.10;;;2.33;;
24147;SDS011;12309;51.450;-2.624;2022-09-09T02:08:38;5.72;;;2.38;;
24147;SDS011;12309;51.450;-2.624;2022-09-09T02:11:12;9.02;;;2.38;;
24147;SDS011;12309;51.450;-2.624;2022-09-09T02:13:46;11.65;;;2.22;;
24147;SDS011;12309;51.450;-2.624;2022-09-09T02:16:15;7.65;;;2.17;;
24147;SDS011;12309;51.450;-2.624;2022-09-09T02:18:49;5.68;;;2.25;;
24147;SDS011;12309;51.450;-2.624;2022-09-09T02:21:20;7.72;;;2.28;;
24147;SDS011;12309;51.450;-2.624;2022-09-09T02:23:47;6.93;;;2.28;;
24147;SDS011;12309;51.450;-2.624;2022-09-09T02:26:17;8.27;;;2.47;;
24147;SDS011;12309;51.450;-2.624;2022-09-09T02:28:47;6.07;;;2.08;;
24147;SDS011;12309;51.450;-2.624;2022-09-09T02:31:16;7.32;;;2.05;;
24147;SDS011;12309;51.450;-2.624;2022-09-09T02:33:46;7.72;;;1.80;;
24147;SDS011;12309;51.450;-2.624;2022-09-09T02:36:17;12.30;;;2.45;;
24147;SDS011;12309;51.450;-2.624;2022-09-09T02:38:46;8.82;;;2.25;;
24147;SDS011;12309;51.450;-2.624;2022-09-09T02:41:22;8.43;;;2.33;;
24147;SDS011;12309;51.450;-2.624;2022-09-09T02:43:50;7.35;;;2.10;;
24147;SDS011;12309;51.450;-2.624;2022-09-09T02:56:55;8.93;;;2.20;;
24147;SDS011;12309;51.450;-2.624;2022-09-09T02:59:36;4.22;;;2.15;;
24147;SDS011;12309;51.450;-2.624;2022-09-09T03:02:02;11.25;;;2.30;;
24147;SDS011;12309;51.450;-2.624;2022-09-09T03:04:28;5.22;;;2.00;;
24147;SDS011;12309;51.450;-2.624;2022-09-09T03:06:56;6.13;;;2.10;;
24147;SDS011;12309;51.450;-2.624;2022-09-09T03:09:23;5.90;;;1.88;;
24147;SDS011;12309;51.450;-2.624;2022-09-09T03:11:49;5.10;;;1.90;;
24147;SDS011;12309;51.450;-2.624;2022-09-09T03:14:15;6.68;;;1.73;;
24147;SDS011;12309;51.450;-2.624;2022-09-09T03:16:41;7.05;;;2.20;;
24147;SDS011;12309;51.450;-2.624;2022-09-09T03:19:08;4.53;;;2.15;;
24147;SDS011;12309;51.450;-2.624;2022-09-09T03:21:34;5.15;;;2.20;;
24147;SDS011;12309;51.450;-2.624;2022-09-09T03:24:00;8.27;;;2.13;;
24147;SDS011;12309;51.450;-2.624;2022-09-09T03:26:28;5.63;;;2.20;;
24147;SDS011;12309;51.450;-2.624;2022-09-09T03:28:55;7.00;;;1.98;;
24147;SDS011;12309;51.450;-2.624;2022-09-09T03:31:21;5.88;;;2.28;;
24147;SDS011;12309;51.450;-2.624;2022-09-09T03:33:46;3.83;;;2.00;;
24147;SDS011;12309;51.450;-2.624;2022-09-09T03:36:13;6.20;;;1.55;;
24147;SDS011;12309;51.450;-2.624;2022-09-09T03:38:39;4.32;;;1.70;;
24147;SDS011;12309;51.450;-2.624;2022-09-09T03:41:06;5.90;;;1.50;;
24147;SDS011;12309;51.450;-2.624;2022-09-09T03:43:33;5.05;;;2.08;;
24147;SDS011;12309;51.450;-2.624;2022-09-09T03:45:59;7.95;;;2.22;;
24147;SDS011;12309;51.450;-2.624;2022-09-09T03:48:25;4.90;;;1.95;;
24147;SDS011;12309;51.450;-2.624;2022-09-09T03:50:53;7.30;;;2.05;;
24147;SDS011;12309;51.450;-2.624;2022-09-09T03:53:21;9.00;;;2.70;;
24147;SDS011;12309;51.450;-2.624;2022-09-09T03:55:50;5.85;;;1.80;;
24147;SDS011;12309;51.450;-2.624;2022-09-09T03:58:19;5.68;;;1.83;;
24147;SDS011;12309;51.450;-2.624;2022-09-09T04:00:56;7.70;;;1.98;;
24147;SDS011;12309;51.450;-2.624;2022-09-09T04:03:24;11.30;;;1.98;;
24147;SDS011;12309;51.450;-2.624;2022-09-09T04:05:53;6.05;;;1.92;;
24147;SDS011;12309;51.450;-2.624;2022-09-09T04:08:20;5.20;;;1.73;;
24147;SDS011;12309;51.450;-2.624;2022-09-09T04:10:47;5.50;;;1.70;;
24147;SDS011;12309;51.450;-2.624;2022-09-09T04:13:13;3.47;;;1.95;;
24147;SDS011;12309;51.450;-2.624;2022-09-09T04:15:42;9.18;;;1.77;;
24147;SDS011;12309;51.450;-2.624;2022-09-09T04:18:10;4.28;;;1.63;;
24147;SDS011;12309;51.450;-2.624;2022-09-09T04:20:36;5.38;;;1.48;;
24147;SDS011;12309;51.450;-2.624;2022-09-09T04:23:02;5.47;;;1.83;;
24147;SDS011;12309;51.450;-2.624;2022-09-09T04:25:29;7.18;;;1.70;;
24147;SDS011;12309;51.450;-2.624;2022-09-09T04:27:55;5.68;;;2.00;;
24147;SDS011;12309;51.450;-2.624;2022-09-09T04:30:22;12.23;;;1.60;;
24147;SDS011;12309;51.450;-2.624;2022-09-09T04:32:48;7.28;;;1.75;;
24147;SDS011;12309;51.450;-2.624;2022-09-09T04:35:14;5.32;;;1.83;;
24147;SDS011;12309;51.450;-2.624;2022-09-09T04:37:39;6.40;;;1.67;;
24147;SDS011;12309;51.450;-2.624;2022-09-09T04:40:06;3.33;;;1.45;;
24147;SDS011;12309;51.450;-2.624;2022-09-09T04:42:38;6.65;;;1.80;;
24147;SDS011;12309;51.450;-2.624;2022-09-09T04:45:04;3.40;;;1.48;;
24147;SDS011;12309;51.450;-2.624;2022-09-09T04:47:31;3.25;;;1.27;;
24147;SDS011;12309;51.450;-2.624;2022-09-09T04:49:57;11.60;;;1.63;;
24147;SDS011;12309;51.450;-2.624;2022-09-09T04:52:23;5.13;;;1.27;;
24147;SDS011;12309;51.450;-2.624;2022-09-09T04:54:49;5.50;;;1.70;;
24147;SDS011;12309;51.450;-2.624;2022-09-09T04:57:14;5.40;;;1.27;;
24147;SDS011;12309;51.450;-2.624;2022-09-09T04:59:40;7.05;;;1.42;;
24147;SDS011;12309;51.450;-2.624;2022-09-09T05:02:06;9.18;;;1.52;;
24147;SDS011;12309;51.450;-2.624;2022-09-09T05:04:32;4.78;;;1.38;;
24147;SDS011;12309;51.450;-2.624;2022-09-09T05:06:58;8.98;;;1.60;;
24147;SDS011;12309;51.450;-2.624;2022-09-09T05:09:24;5.15;;;1.10;;
24147;SDS011;12309;51.450;-2.624;2022-09-09T05:11:49;5.28;;;1.52;;
24147;SDS011;12309;51.450;-2.624;2022-09-09T05:14:16;3.72;;;1.30;;
24147;SDS011;12309;51.450;-2.624;2022-09-09T05:16:42;6.18;;;1.10;;
24147;SDS011;12309;51.450;-2.624;2022-09-09T05:19:10;4.38;;;1.30;;
24147;SDS011;12309;51.450;-2.624;2022-09-09T05:21:36;9.93;;;1.25;;
24147;SDS011;12309;51.450;-2.624;2022-09-09T05:24:02;2.92;;;1.00;;
24147;SDS011;12309;51.450;-2.624;2022-09-09T05:26:28;9.07;;;1.67;;
24147;SDS011;12309;51.450;-2.624;2022-09-09T05:28:54;5.40;;;1.13;;
24147;SDS011;12309;51.450;-2.624;2022-09-09T05:31:20;5.20;;;1.10;;
24147;SDS011;12309;51.450;-2.624;2022-09-09T05:33:46;6.65;;;1.42;;
24147;SDS011;12309;51.450;-2.624;2022-09-09T05:36:18;6.57;;;1.42;;
24147;SDS011;12309;51.450;-2.624;2022-09-09T05:38:45;6.55;;;1.00;;
24147;SDS011;12309;51.450;-2.624;2022-09-09T05:41:12;9.98;;;1.35;;
24147;SDS011;12309;51.450;-2.624;2022-09-09T05:43:40;9.60;;;1.42;;
24147;SDS011;12309;51.450;-2.624;2022-09-09T05:46:09;9.25;;;1.38;;
24147;SDS011;12309;51.450;-2.624;2022-09-09T05:48:40;6.53;;;1.23;;
24147;SDS011;12309;51.450;-2.624;2022-09-09T05:51:10;6.90;;;1.10;;
24147;SDS011;12309;51.450;-2.624;2022-09-09T05:53:38;8.98;;;1.23;;
24147;SDS011;12309;51.450;-2.624;2022-09-09T05:56:05;5.85;;;1.13;;
24147;SDS011;12309;51.450;-2.624;2022-09-09T05:58:32;4.55;;;1.20;;
24147;SDS011;12309;51.450;-2.624;2022-09-09T06:03:31;5.15;;;1.55;;
24147;SDS011;12309;51.450;-2.624;2022-09-09T06:05:59;7.13;;;1.42;;
24147;SDS011;12309;51.450;-2.624;2022-09-09T06:08:25;5.63;;;1.17;;
24147;SDS011;12309;51.450;-2.624;2022-09-09T06:10:51;7.03;;;1.33;;
24147;SDS011;12309;51.450;-2.624;2022-09-09T06:13:17;10.98;;;1.23;;
24147;SDS011;12309;51.450;-2.624;2022-09-09T06:15:50;10.02;;;1.58;;
24147;SDS011;12309;51.450;-2.624;2022-09-09T06:18:17;8.07;;;1.73;;
24147;SDS011;12309;51.450;-2.624;2022-09-09T06:20:52;6.50;;;1.35;;
24147;SDS011;12309;51.450;-2.624;2022-09-09T06:23:22;6.05;;;1.25;;
24147;SDS011;12309;51.450;-2.624;2022-09-09T06:25:48;13.98;;;1.73;;
24147;SDS011;12309;51.450;-2.624;2022-09-09T06:28:14;5.85;;;1.20;;
24147;SDS011;12309;51.450;-2.624;2022-09-09T06:30:42;3.05;;;1.08;;
24147;SDS011;12309;51.450;-2.624;2022-09-09T06:33:07;7.97;;;1.27;;
24147;SDS011;12309;51.450;-2.624;2022-09-09T06:35:34;10.43;;;2.42;;
24147;SDS011;12309;51.450;-2.624;2022-09-09T06:38:00;9.50;;;1.33;;
24147;SDS011;12309;51.450;-2.624;2022-09-09T06:40:25;8.75;;;1.42;;
24147;SDS011;12309;51.450;-2.624;2022-09-09T06:42:51;5.90;;;1.63;;
24147;SDS011;12309;51.450;-2.624;2022-09-09T06:45:18;10.18;;;1.70;;
24147;SDS011;12309;51.450;-2.624;2022-09-09T06:47:44;13.63;;;1.80;;
24147;SDS011;12309;51.450;-2.624;2022-09-09T06:50:09;6.15;;;1.58;;
24147;SDS011;12309;51.450;-2.624;2022-09-09T06:52:36;13.50;;;1.83;;
24147;SDS011;12309;51.450;-2.624;2022-09-09T06:55:02;11.15;;;1.38;;
24147;SDS011;12309;51.450;-2.624;2022-09-09T06:57:28;9.05;;;1.70;;
24147;SDS011;12309;51.450;-2.624;2022-09-09T06:59:54;7.05;;;1.45;;
24147;SDS011;12309;51.450;-2.624;2022-09-09T07:02:20;7.35;;;1.73;;
24147;SDS011;12309;51.450;-2.624;2022-09-09T07:04:46;10.80;;;1.48;;
24147;SDS011;12309;51.450;-2.624;2022-09-09T07:07:12;7.38;;;1.50;;
24147;SDS011;12309;51.450;-2.624;2022-09-09T07:09:40;7.47;;;1.60;;
24147;SDS011;12309;51.450;-2.624;2022-09-09T07:12:06;10.13;;;1.83;;
24147;SDS011;12309;51.450;-2.624;2022-09-09T07:14:32;11.02;;;1.65;;
24147;SDS011;12309;51.450;-2.624;2022-09-09T07:16:59;6.82;;;1.60;;
24147;SDS011;12309;51.450;-2.624;2022-09-09T07:19:25;4.72;;;1.20;;
24147;SDS011;12309;51.450;-2.624;2022-09-09T07:21:51;7.22;;;1.48;;
24147;SDS011;12309;51.450;-2.624;2022-09-09T07:24:17;12.93;;;1.70;;
24147;SDS011;12309;51.450;-2.624;2022-09-09T07:26:42;6.57;;;1.33;;
24147;SDS011;12309;51.450;-2.624;2022-09-09T07:29:12;4.65;;;1.55;;
24147;SDS011;12309;51.450;-2.624;2022-09-09T07:31:40;9.43;;;2.45;;
24147;SDS011;12309;51.450;-2.624;2022-09-09T07:34:07;7.07;;;1.65;;
24147;SDS011;12309;51.450;-2.624;2022-09-09T07:36:34;7.32;;;1.60;;
24147;SDS011;12309;51.450;-2.624;2022-09-09T07:39:07;9.13;;;1.83;;
24147;SDS011;12309;51.450;-2.624;2022-09-09T07:44:09;4.07;;;1.45;;
24147;SDS011;12309;51.450;-2.624;2022-09-09T07:46:41;4.03;;;1.33;;
24147;SDS011;12309;51.450;-2.624;2022-09-09T07:49:07;4.63;;;1.20;;
24147;SDS011;12309;51.450;-2.624;2022-09-09T07:51:35;3.70;;;1.10;;
24147;SDS011;12309;51.450;-2.624;2022-09-09T07:54:04;4.43;;;1.27;;
24147;SDS011;12309;51.450;-2.624;2022-09-09T07:56:33;4.88;;;1.25;;
24147;SDS011;12309;51.450;-2.624;2022-09-09T07:58:58;5.88;;;0.88;;
24147;SDS011;12309;51.450;-2.624;2022-09-09T08:01:31;12.23;;;1.58;;
24147;SDS011;12309;51.450;-2.624;2022-09-09T08:04:04;3.65;;;1.15;;
24147;SDS011;12309;51.450;-2.624;2022-09-09T08:06:34;5.88;;;1.20;;
24147;SDS011;12309;51.450;-2.624;2022-09-09T08:09:02;8.02;;;1.50;;
24147;SDS011;12309;51.450;-2.624;2022-09-09T08:11:29;5.22;;;1.33;;
24147;SDS011;12309;51.450;-2.624;2022-09-09T08:13:55;7.70;;;1.52;;
24147;SDS011;12309;51.450;-2.624;2022-09-09T08:16:22;4.72;;;1.00;;
24147;SDS011;12309;51.450;-2.624;2022-09-09T08:18:50;2.45;;;0.90;;
24147;SDS011;12309;51.450;-2.624;2022-09-09T08:21:22;7.00;;;0.90;;
24147;SDS011;12309;51.450;-2.624;2022-09-09T08:23:53;3.40;;;1.00;;
24147;SDS011;12309;51.450;-2.624;2022-09-09T08:26:36;5.00;;;0.95;;
24147;SDS011;12309;51.450;-2.624;2022-09-09T08:29:10;2.08;;;0.73;;
24147;SDS011;12309;51.450;-2.624;2022-09-09T08:31:37;2.50;;;0.50;;
24147;SDS011;12309;51.450;-2.624;2022-09-09T08:34:05;5.45;;;0.90;;
24147;SDS011;12309;51.450;-2.624;2022-09-09T08:36:36;4.80;;;1.00;;
24147;SDS011;12309;51.450;-2.624;2022-09-09T08:39:05;5.53;;;0.73;;
24147;SDS011;12309;51.450;-2.624;2022-09-09T08:44:07;7.93;;;0.70;;
24147;SDS011;12309;51.450;-2.624;2022-09-09T08:46:48;6.35;;;1.42;;
24147;SDS011;12309;51.450;-2.624;2022-09-09T08:52:19;1.77;;;0.55;;
24147;SDS011;12309;51.450;-2.624;2022-09-09T08:54:48;2.08;;;0.80;;
24147;SDS011;12309;51.450;-2.624;2022-09-09T08:57:19;3.28;;;1.02;;
24147;SDS011;12309;51.450;-2.624;2022-09-09T08:59:53;2.50;;;0.60;;
24147;SDS011;12309;51.450;-2.624;2022-09-09T09:02:37;3.08;;;0.70;;
24147;SDS011;12309;51.450;-2.624;2022-09-09T09:08:16;1.25;;;0.60;;
24147;SDS011;12309;51.450;-2.624;2022-09-09T09:10:54;3.33;;;0.70;;
24147;SDS011;12309;51.450;-2.624;2022-09-09T09:13:41;2.28;;;0.65;;
24147;SDS011;12309;51.450;-2.624;2022-09-09T09:18:55;2.53;;;0.63;;
24147;SDS011;12309;51.450;-2.624;2022-09-09T09:21:26;4.65;;;0.90;;
24147;SDS011;12309;51.450;-2.624;2022-09-09T09:24:21;3.65;;;0.82;;
24147;SDS011;12309;51.450;-2.624;2022-09-09T09:26:52;2.72;;;0.70;;
24147;SDS011;12309;51.450;-2.624;2022-09-09T09:29:18;2.70;;;0.80;;
24147;SDS011;12309;51.450;-2.624;2022-09-09T09:31:55;6.18;;;0.73;;
24147;SDS011;12309;51.450;-2.624;2022-09-09T09:34:24;1.85;;;0.68;;
24147;SDS011;12309;51.450;-2.624;2022-09-09T09:36:53;5.18;;;0.70;;
24147;SDS011;12309;51.450;-2.624;2022-09-09T09:39:24;5.18;;;0.63;;
24147;SDS011;12309;51.450;-2.624;2022-09-09T09:42:14;2.80;;;0.57;;
24147;SDS011;12309;51.450;-2.624;2022-09-09T09:44:42;4.03;;;0.70;;
24147;SDS011;12309;51.450;-2.624;2022-09-09T09:49:37;1.67;;;0.75;;
24147;SDS011;12309;51.450;-2.624;2022-09-09T09:52:03;1.10;;;0.70;;
24147;SDS011;12309;51.450;-2.624;2022-09-09T09:54:32;2.50;;;0.80;;
24147;SDS011;12309;51.450;-2.624;2022-09-09T09:57:12;3.55;;;0.63;;
24147;SDS011;12309;51.450;-2.624;2022-09-09T09:59:40;1.67;;;0.70;;
24147;SDS011;12309;51.450;-2.624;2022-09-09T10:02:31;2.45;;;0.80;;
24147;SDS011;12309;51.450;-2.624;2022-09-09T10:05:03;5.45;;;1.05;;
24147;SDS011;12309;51.450;-2.624;2022-09-09T10:07:38;4.97;;;0.73;;
24147;SDS011;12309;51.450;-2.624;2022-09-09T10:10:04;3.80;;;0.90;;
24147;SDS011;12309;51.450;-2.624;2022-09-09T10:12:52;3.65;;;0.77;;
24147;SDS011;12309;51.450;-2.624;2022-09-09T10:15:37;1.95;;;0.60;;
24147;SDS011;12309;51.450;-2.624;2022-09-09T10:20:52;3.72;;;0.90;;
24147;SDS011;12309;51.450;-2.624;2022-09-09T10:37:00;3.67;;;1.00;;
24147;SDS011;12309;51.450;-2.624;2022-09-09T10:39:42;5.45;;;0.82;;
24147;SDS011;12309;51.450;-2.624;2022-09-09T10:42:09;2.13;;;0.70;;
24147;SDS011;12309;51.450;-2.624;2022-09-09T10:47:37;3.88;;;0.88;;
24147;SDS011;12309;51.450;-2.624;2022-09-09T10:53:18;5.28;;;1.10;;
24147;SDS011;12309;51.450;-2.624;2022-09-09T10:56:04;7.28;;;0.93;;
24147;SDS011;12309;51.450;-2.624;2022-09-09T10:58:53;6.60;;;1.00;;
24147;SDS011;12309;51.450;-2.624;2022-09-09T11:01:25;2.25;;;1.20;;
24147;SDS011;12309;51.450;-2.624;2022-09-09T11:06:57;3.90;;;1.20;;
24147;SDS011;12309;51.450;-2.624;2022-09-09T11:09:30;6.20;;;1.55;;
24147;SDS011;12309;51.450;-2.624;2022-09-09T11:12:02;3.78;;;1.13;;
24147;SDS011;12309;51.450;-2.624;2022-09-09T11:14:37;6.22;;;1.40;;
24147;SDS011;12309;51.450;-2.624;2022-09-09T11:17:15;7.15;;;1.30;;
24147;SDS011;12309;51.450;-2.624;2022-09-09T11:19:45;4.85;;;1.25;;
24147;SDS011;12309;51.450;-2.624;2022-09-09T11:22:29;8.60;;;1.52;;
24147;SDS011;12309;51.450;-2.624;2022-09-09T11:25:05;6.60;;;1.33;;
24147;SDS011;12309;51.450;-2.624;2022-09-09T11:27:44;4.38;;;1.40;;
24147;SDS011;12309;51.450;-2.624;2022-09-09T11:30:21;6.43;;;1.20;;
24147;SDS011;12309;51.450;-2.624;2022-09-09T11:41:06;1.85;;;0.90;;
24147;SDS011;12309;51.450;-2.624;2022-09-09T11:43:44;5.03;;;0.85;;
24147;SDS011;12309;51.450;-2.624;2022-09-09T11:46:19;2.20;;;1.20;;
24147;SDS011;12309;51.450;-2.624;2022-09-09T11:49:00;4.35;;;1.00;;
24147;SDS011;12309;51.450;-2.624;2022-09-09T11:51:28;2.72;;;1.10;;
24147;SDS011;12309;51.450;-2.624;2022-09-09T11:53:57;5.22;;;1.33;;
24147;SDS011;12309;51.450;-2.624;2022-09-09T12:01:41;3.72;;;1.30;;
24147;SDS011;12309;51.450;-2.624;2022-09-09T12:06:54;5.15;;;1.40;;
24147;SDS011;12309;51.450;-2.624;2022-09-09T12:11:53;4.88;;;1.60;;
24147;SDS011;12309;51.450;-2.624;2022-09-09T12:17:25;4.68;;;1.70;;
24147;SDS011;12309;51.450;-2.624;2022-09-09T12:28:32;6.32;;;1.63;;
24147;SDS011;12309;51.450;-2.624;2022-09-09T12:33:36;2.10;;;0.70;;
24147;SDS011;12309;51.450;-2.624;2022-09-09T12:36:12;2.15;;;0.75;;
24147;SDS011;12309;51.450;-2.624;2022-09-09T12:38:44;6.88;;;1.27;;
24147;SDS011;12309;51.450;-2.624;2022-09-09T12:41:23;3.63;;;1.00;;
24147;SDS011;12309;51.450;-2.624;2022-09-09T12:43:50;1.58;;;0.68;;
24147;SDS011;12309;51.450;-2.624;2022-09-09T12:46:29;2.47;;;0.70;;
24147;SDS011;12309;51.450;-2.624;2022-09-09T12:49:01;3.25;;;0.90;;
24147;SDS011;12309;51.450;-2.624;2022-09-09T12:51:30;2.40;;;0.88;;
24147;SDS011;12309;51.450;-2.624;2022-09-09T12:53:58;4.80;;;1.00;;
24147;SDS011;12309;51.450;-2.624;2022-09-09T12:56:25;4.32;;;1.13;;
24147;SDS011;12309;51.450;-2.624;2022-09-09T12:58:56;4.72;;;1.20;;
24147;SDS011;12309;51.450;-2.624;2022-09-09T13:03:51;5.15;;;1.17;;
24147;SDS011;12309;51.450;-2.624;2022-09-09T13:08:54;3.95;;;1.70;;
24147;SDS011;12309;51.450;-2.624;2022-09-09T13:11:23;8.13;;;1.90;;
24147;SDS011;12309;51.450;-2.624;2022-09-09T13:14:13;7.45;;;1.90;;
24147;SDS011;12309;51.450;-2.624;2022-09-09T13:16:43;6.28;;;2.00;;
24147;SDS011;12309;51.450;-2.624;2022-09-09T13:19:23;7.70;;;1.90;;
24147;SDS011;12309;51.450;-2.624;2022-09-09T13:21:53;7.47;;;2.20;;
24147;SDS011;12309;51.450;-2.624;2022-09-09T13:24:33;3.35;;;1.60;;
24147;SDS011;12309;51.450;-2.624;2022-09-09T13:29:27;5.47;;;1.92;;
24147;SDS011;12309;51.450;-2.624;2022-09-09T13:31:53;8.10;;;2.00;;
24147;SDS011;12309;51.450;-2.624;2022-09-09T13:37:01;7.25;;;1.98;;
24147;SDS011;12309;51.450;-2.624;2022-09-09T13:39:30;5.88;;;1.95;;
24147;SDS011;12309;51.450;-2.624;2022-09-09T13:41:59;10.05;;;1.80;;
24147;SDS011;12309;51.450;-2.624;2022-09-09T13:44:28;5.38;;;1.60;;
24147;SDS011;12309;51.450;-2.624;2022-09-09T13:47:04;4.38;;;1.35;;
24147;SDS011;12309;51.450;-2.624;2022-09-09T13:49:30;4.63;;;1.35;;
24147;SDS011;12309;51.450;-2.624;2022-09-09T13:52:14;5.68;;;1.58;;
24147;SDS011;12309;51.450;-2.624;2022-09-09T13:54:50;3.67;;;1.20;;
24147;SDS011;12309;51.450;-2.624;2022-09-09T13:57:18;5.00;;;1.50;;
24147;SDS011;12309;51.450;-2.624;2022-09-09T13:59:50;5.63;;;1.65;;
24147;SDS011;12309;51.450;-2.624;2022-09-09T14:02:17;3.40;;;1.70;;
24147;SDS011;12309;51.450;-2.624;2022-09-09T14:04:43;6.63;;;2.10;;
24147;SDS011;12309;51.450;-2.624;2022-09-09T14:07:13;5.03;;;1.80;;
24147;SDS011;12309;51.450;-2.624;2022-09-09T14:09:40;5.68;;;2.10;;
24147;SDS011;12309;51.450;-2.624;2022-09-09T14:12:10;5.97;;;2.25;;
24147;SDS011;12309;51.450;-2.624;2022-09-09T14:14:37;6.18;;;2.05;;
24147;SDS011;12309;51.450;-2.624;2022-09-09T14:17:02;4.60;;;1.73;;
24147;SDS011;12309;51.450;-2.624;2022-09-09T14:19:29;4.85;;;1.77;;
24147;SDS011;12309;51.450;-2.624;2022-09-09T14:21:56;6.85;;;2.00;;
24147;SDS011;12309;51.450;-2.624;2022-09-09T14:24:22;2.63;;;1.48;;
24147;SDS011;12309;51.450;-2.624;2022-09-09T14:26:48;4.63;;;1.10;;
24147;SDS011;12309;51.450;-2.624;2022-09-09T14:29:14;3.85;;;1.58;;
24147;SDS011;12309;51.450;-2.624;2022-09-09T14:31:39;3.60;;;1.30;;
24147;SDS011;12309;51.450;-2.624;2022-09-09T14:34:05;4.78;;;1.58;;
24147;SDS011;12309;51.450;-2.624;2022-09-09T14:36:31;3.80;;;1.23;;
24147;SDS011;12309;51.450;-2.624;2022-09-09T14:38:57;2.45;;;1.10;;
24147;SDS011;12309;51.450;-2.624;2022-09-09T14:41:23;6.28;;;1.77;;
24147;SDS011;12309;51.450;-2.624;2022-09-09T14:43:50;4.82;;;1.48;;
24147;SDS011;12309;51.450;-2.624;2022-09-09T14:46:17;2.80;;;1.17;;
24147;SDS011;12309;51.450;-2.624;2022-09-09T14:48:44;3.53;;;1.23;;
24147;SDS011;12309;51.450;-2.624;2022-09-09T14:51:11;5.43;;;1.42;;
24147;SDS011;12309;51.450;-2.624;2022-09-09T14:53:39;2.35;;;1.08;;
24147;SDS011;12309;51.450;-2.624;2022-09-09T14:56:06;2.50;;;1.00;;
24147;SDS011;12309;51.450;-2.624;2022-09-09T14:58:37;2.33;;;0.70;;
24147;SDS011;12309;51.450;-2.624;2022-09-09T15:01:14;3.40;;;0.68;;
24147;SDS011;12309;51.450;-2.624;2022-09-09T15:03:42;3.33;;;0.82;;
24147;SDS011;12309;51.450;-2.624;2022-09-09T15:06:13;5.13;;;0.70;;
24147;SDS011;12309;51.450;-2.624;2022-09-09T15:08:43;1.95;;;0.68;;
24147;SDS011;12309;51.450;-2.624;2022-09-09T15:11:10;1.50;;;0.73;;
24147;SDS011;12309;51.450;-2.624;2022-09-09T15:13:37;3.97;;;0.98;;
24147;SDS011;12309;51.450;-2.624;2022-09-09T15:18:35;3.13;;;0.88;;
24147;SDS011;12309;51.450;-2.624;2022-09-09T15:21:04;3.17;;;1.08;;
24147;SDS011;12309;51.450;-2.624;2022-09-09T15:23:34;1.65;;;0.90;;
24147;SDS011;12309;51.450;-2.624;2022-09-09T15:26:00;3.92;;;1.08;;
24147;SDS011;12309;51.450;-2.624;2022-09-09T15:28:26;3.90;;;1.00;;
24147;SDS011;12309;51.450;-2.624;2022-09-09T15:30:52;4.80;;;0.93;;
24147;SDS011;12309;51.450;-2.624;2022-09-09T15:33:19;3.58;;;1.10;;
24147;SDS011;12309;51.450;-2.624;2022-09-09T15:35:46;4.35;;;1.10;;
24147;SDS011;12309;51.450;-2.624;2022-09-09T15:38:12;5.15;;;1.02;;
24147;SDS011;12309;51.450;-2.624;2022-09-09T15:40:41;3.72;;;1.23;;
24147;SDS011;12309;51.450;-2.624;2022-09-09T15:43:08;2.70;;;1.13;;
24147;SDS011;12309;51.450;-2.624;2022-09-09T15:45:35;5.15;;;1.17;;
24147;SDS011;12309;51.450;-2.624;2022-09-09T15:48:02;6.03;;;1.48;;
24147;SDS011;12309;51.450;-2.624;2022-09-09T15:50:28;2.70;;;1.02;;
24147;SDS011;12309;51.450;-2.624;2022-09-09T15:52:57;4.25;;;1.10;;
24147;SDS011;12309;51.450;-2.624;2022-09-09T15:55:23;3.95;;;0.93;;
24147;SDS011;12309;51.450;-2.624;2022-09-09T15:57:49;3.38;;;0.98;;
24147;SDS011;12309;51.450;-2.624;2022-09-09T16:00:18;3.28;;;0.60;;
24147;SDS011;12309;51.450;-2.624;2022-09-09T16:02:44;3.03;;;0.73;;
24147;SDS011;12309;51.450;-2.624;2022-09-09T16:05:11;4.40;;;0.75;;
24147;SDS011;12309;51.450;-2.624;2022-09-09T16:07:37;3.50;;;0.80;;
24147;SDS011;12309;51.450;-2.624;2022-09-09T16:10:03;3.97;;;1.02;;
24147;SDS011;12309;51.450;-2.624;2022-09-09T16:12:29;2.65;;;0.77;;
24147;SDS011;12309;51.450;-2.624;2022-09-09T16:14:54;5.80;;;1.20;;
24147;SDS011;12309;51.450;-2.624;2022-09-09T16:17:20;1.95;;;0.70;;
24147;SDS011;12309;51.450;-2.624;2022-09-09T16:19:46;3.03;;;0.85;;
24147;SDS011;12309;51.450;-2.624;2022-09-09T16:22:12;5.53;;;0.73;;
24147;SDS011;12309;51.450;-2.624;2022-09-09T16:24:40;3.42;;;1.10;;
24147;SDS011;12309;51.450;-2.624;2022-09-09T16:27:06;7.22;;;0.88;;
24147;SDS011;12309;51.450;-2.624;2022-09-09T16:29:31;2.17;;;0.80;;
24147;SDS011;12309;51.450;-2.624;2022-09-09T16:31:57;4.35;;;0.80;;
24147;SDS011;12309;51.450;-2.624;2022-09-09T16:34:23;3.80;;;1.00;;
24147;SDS011;12309;51.450;-2.624;2022-09-09T16:36:50;4.43;;;1.42;;
24147;SDS011;12309;51.450;-2.624;2022-09-09T16:39:17;2.53;;;0.75;;
24147;SDS011;12309;51.450;-2.624;2022-09-09T16:41:45;3.92;;;0.90;;
24147;SDS011;12309;51.450;-2.624;2022-09-09T16:44:13;3.42;;;0.82;;
24147;SDS011;12309;51.450;-2.624;2022-09-09T16:46:41;4.43;;;1.00;;
24147;SDS011;12309;51.450;-2.624;2022-09-09T16:49:08;4.18;;;1.05;;
24147;SDS011;12309;51.450;-2.624;2022-09-09T16:51:37;5.85;;;1.08;;
24147;SDS011;12309;51.450;-2.624;2022-09-09T16:54:07;4.70;;;1.50;;
24147;SDS011;12309;51.450;-2.624;2022-09-09T16:56:35;4.20;;;1.27;;
24147;SDS011;12309;51.450;-2.624;2022-09-09T16:59:05;3.65;;;1.23;;
24147;SDS011;12309;51.450;-2.624;2022-09-09T17:01:34;4.72;;;1.50;;